sensor_id;sensor_type;location;lat;lon;timestamp;P1;durP1;ratioP1;P2;durP2;ratioP2
19446;SDS011;9862;49.462;11.054;2022-10-03T00:00:37;10.65;;;7.53;;
19446;SDS011;9862;49.462;11.054;2022-10-03T00:03:15;8.63;;;6.30;;
19446;SDS011;9862;49.462;11.054;2022-10-03T00:05:53;11.38;;;6.53;;
19446;SDS011;9862;49.462;11.054;2022-10-03T00:08:35;9.50;;;6.03;;
19446;SDS011;9862;49.462;11.054;2022-10-03T00:11:17;11.90;;;6.82;;
19446;SDS011;9862;49.462;11.054;2022-10-03T00:13:54;11.85;;;6.47;;
19446;SDS011;9862;49.462;11.054;2022-10-03T00:16:27;12.10;;;7.35;;
19446;SDS011;9862;49.462;11.054;2022-10-03T00:19:04;8.10;;;6.55;;
19446;SDS011;9862;49.462;11.054;2022-10-03T00:21:46;9.77;;;6.40;;
19446;SDS011;9862;49.462;11.054;2022-10-03T00:24:30;11.45;;;6.97;;
19446;SDS011;9862;49.462;11.054;2022-10-03T00:27:11;12.13;;;6.75;;
19446;SDS011;9862;49.462;11.054;2022-10-03T00:29:47;10.07;;;6.47;;
19446;SDS011;9862;49.462;11.054;2022-10-03T00:32:26;11.20;;;6.20;;
19446;SDS011;9862;49.462;11.054;2022-10-03T00:35:03;11.85;;;6.57;;
19446;SDS011;9862;49.462;11.054;2022-10-03T00:37:39;12.30;;;6.78;;
19446;SDS011;9862;49.462;11.054;2022-10-03T00:43:33;10.55;;;7.10;;
19446;SDS011;9862;49.462;11.054;2022-10-03T00:46:32;8.10;;;6.15;;
19446;SDS011;9862;49.462;11.054;2022-10-03T00:52:22;12.25;;;7.28;;
19446;SDS011;9862;49.462;11.054;2022-10-03T00:55:02;9.85;;;6.72;;
19446;SDS011;9862;49.462;11.054;2022-10-03T00:57:48;11.32;;;6.28;;
19446;SDS011;9862;49.462;11.054;2022-10-03T01:00:24;9.07;;;7.30;;
19446;SDS011;9862;49.462;11.054;2022-10-03T01:02:59;10.27;;;6.70;;
19446;SDS011;9862;49.462;11.054;2022-10-03T01:05:40;9.48;;;6.22;;
19446;SDS011;9862;49.462;11.054;2022-10-03T01:08:22;10.90;;;6.25;;
19446;SDS011;9862;49.462;11.054;2022-10-03T01:11:05;14.38;;;7.43;;
19446;SDS011;9862;49.462;11.054;2022-10-03T01:13:47;9.70;;;6.28;;
19446;SDS011;9862;49.462;11.054;2022-10-03T01:16:29;9.07;;;6.15;;
19446;SDS011;9862;49.462;11.054;2022-10-03T01:19:04;9.07;;;5.80;;
19446;SDS011;9862;49.462;11.054;2022-10-03T01:21:53;10.88;;;6.95;;
19446;SDS011;9862;49.462;11.054;2022-10-03T01:24:41;8.02;;;6.25;;
19446;SDS011;9862;49.462;11.054;2022-10-03T01:27:17;11.63;;;6.80;;
19446;SDS011;9862;49.462;11.054;2022-10-03T01:29:58;9.30;;;6.32;;
19446;SDS011;9862;49.462;11.054;2022-10-03T01:32:46;9.25;;;6.45;;
19446;SDS011;9862;49.462;11.054;2022-10-03T01:35:23;10.27;;;7.22;;
19446;SDS011;9862;49.462;11.054;2022-10-03T01:38:02;14.85;;;8.00;;
19446;SDS011;9862;49.462;11.054;2022-10-03T01:40:35;9.77;;;6.85;;
19446;SDS011;9862;49.462;11.054;2022-10-03T01:43:08;9.55;;;6.40;;
19446;SDS011;9862;49.462;11.054;2022-10-03T01:45:51;13.45;;;7.10;;
19446;SDS011;9862;49.462;11.054;2022-10-03T01:48:25;11.82;;;7.45;;
19446;SDS011;9862;49.462;11.054;2022-10-03T01:51:00;11.80;;;6.72;;
19446;SDS011;9862;49.462;11.054;2022-10-03T01:53:36;11.93;;;7.28;;
19446;SDS011;9862;49.462;11.054;2022-10-03T01:56:13;13.10;;;7.78;;
19446;SDS011;9862;49.462;11.054;2022-10-03T01:58:48;12.00;;;7.32;;
19446;SDS011;9862;49.462;11.054;2022-10-03T02:01:27;11.93;;;7.07;;
19446;SDS011;9862;49.462;11.054;2022-10-03T02:04:02;10.27;;;6.90;;
19446;SDS011;9862;49.462;11.054;2022-10-03T02:06:41;11.82;;;7.95;;
19446;SDS011;9862;49.462;11.054;2022-10-03T02:09:19;8.85;;;7.10;;
19446;SDS011;9862;49.462;11.054;2022-10-03T02:14:43;12.00;;;7.25;;
19446;SDS011;9862;49.462;11.054;2022-10-03T02:17:21;10.88;;;7.32;;
19446;SDS011;9862;49.462;11.054;2022-10-03T02:20:00;14.18;;;7.78;;
19446;SDS011;9862;49.462;11.054;2022-10-03T02:22:34;16.10;;;7.40;;
19446;SDS011;9862;49.462;11.054;2022-10-03T02:25:09;10.18;;;7.72;;
19446;SDS011;9862;49.462;11.054;2022-10-03T02:27:55;14.50;;;7.28;;
19446;SDS011;9862;49.462;11.054;2022-10-03T02:30:50;12.13;;;7.47;;
19446;SDS011;9862;49.462;11.054;2022-10-03T02:36:49;15.15;;;8.10;;
19446;SDS011;9862;49.462;11.054;2022-10-03T02:49:29;15.52;;;8.10;;
19446;SDS011;9862;49.462;11.054;2022-10-03T02:58:36;13.85;;;7.85;;
19446;SDS011;9862;49.462;11.054;2022-10-03T03:07:31;12.18;;;7.78;;
19446;SDS011;9862;49.462;11.054;2022-10-03T03:13:23;13.95;;;8.00;;
19446;SDS011;9862;49.462;11.054;2022-10-03T03:16:15;14.52;;;7.28;;
19446;SDS011;9862;49.462;11.054;2022-10-03T03:19:15;11.02;;;7.22;;
19446;SDS011;9862;49.462;11.054;2022-10-03T03:22:05;13.80;;;6.68;;
19446;SDS011;9862;49.462;11.054;2022-10-03T03:24:43;13.75;;;7.40;;
19446;SDS011;9862;49.462;11.054;2022-10-03T03:27:37;16.13;;;7.63;;
19446;SDS011;9862;49.462;11.054;2022-10-03T03:30:15;17.30;;;7.45;;
19446;SDS011;9862;49.462;11.054;2022-10-03T03:32:48;12.38;;;7.57;;
19446;SDS011;9862;49.462;11.054;2022-10-03T03:35:29;15.05;;;7.97;;
19446;SDS011;9862;49.462;11.054;2022-10-03T03:38:10;17.08;;;8.48;;
19446;SDS011;9862;49.462;11.054;2022-10-03T03:40:50;12.95;;;7.15;;
19446;SDS011;9862;49.462;11.054;2022-10-03T03:43:36;14.63;;;8.65;;
19446;SDS011;9862;49.462;11.054;2022-10-03T03:46:21;14.90;;;7.63;;
19446;SDS011;9862;49.462;11.054;2022-10-03T03:52:03;16.20;;;8.02;;
19446;SDS011;9862;49.462;11.054;2022-10-03T03:58:00;14.02;;;7.80;;
19446;SDS011;9862;49.462;11.054;2022-10-03T04:00:39;16.45;;;8.00;;
19446;SDS011;9862;49.462;11.054;2022-10-03T04:03:25;14.80;;;8.05;;
19446;SDS011;9862;49.462;11.054;2022-10-03T04:06:05;14.80;;;7.45;;
19446;SDS011;9862;49.462;11.054;2022-10-03T04:08:52;17.05;;;7.85;;
19446;SDS011;9862;49.462;11.054;2022-10-03T04:11:32;12.13;;;7.80;;
19446;SDS011;9862;49.462;11.054;2022-10-03T04:14:13;11.45;;;7.22;;
19446;SDS011;9862;49.462;11.054;2022-10-03T04:17:09;14.55;;;7.45;;
19446;SDS011;9862;49.462;11.054;2022-10-03T04:20:06;9.45;;;6.57;;
19446;SDS011;9862;49.462;11.054;2022-10-03T04:22:51;11.75;;;7.68;;
19446;SDS011;9862;49.462;11.054;2022-10-03T04:28:36;12.02;;;7.68;;
19446;SDS011;9862;49.462;11.054;2022-10-03T04:31:14;14.00;;;7.18;;
19446;SDS011;9862;49.462;11.054;2022-10-03T04:33:58;17.52;;;10.88;;
19446;SDS011;9862;49.462;11.054;2022-10-03T04:36:50;19.75;;;11.35;;
19446;SDS011;9862;49.462;11.054;2022-10-03T04:39:35;26.52;;;15.40;;
19446;SDS011;9862;49.462;11.054;2022-10-03T04:42:09;14.70;;;9.90;;
19446;SDS011;9862;49.462;11.054;2022-10-03T04:45:02;16.02;;;8.50;;
19446;SDS011;9862;49.462;11.054;2022-10-03T04:47:39;16.15;;;8.50;;
19446;SDS011;9862;49.462;11.054;2022-10-03T04:50:17;18.38;;;9.88;;
19446;SDS011;9862;49.462;11.054;2022-10-03T04:52:55;19.73;;;9.75;;
19446;SDS011;9862;49.462;11.054;2022-10-03T04:55:32;18.95;;;10.93;;
19446;SDS011;9862;49.462;11.054;2022-10-03T04:58:13;18.17;;;9.52;;
19446;SDS011;9862;49.462;11.054;2022-10-03T05:00:53;21.35;;;13.32;;
19446;SDS011;9862;49.462;11.054;2022-10-03T05:03:33;20.25;;;11.82;;
19446;SDS011;9862;49.462;11.054;2022-10-03T05:06:16;25.42;;;14.23;;
19446;SDS011;9862;49.462;11.054;2022-10-03T05:08:53;17.67;;;11.02;;
19446;SDS011;9862;49.462;11.054;2022-10-03T05:11:28;16.40;;;9.80;;
19446;SDS011;9862;49.462;11.054;2022-10-03T05:14:07;14.43;;;8.60;;
19446;SDS011;9862;49.462;11.054;2022-10-03T05:16:39;14.23;;;8.43;;
19446;SDS011;9862;49.462;11.054;2022-10-03T05:19:25;18.67;;;10.13;;
19446;SDS011;9862;49.462;11.054;2022-10-03T05:22:13;14.48;;;8.50;;
19446;SDS011;9862;49.462;11.054;2022-10-03T05:24:50;20.67;;;12.00;;
19446;SDS011;9862;49.462;11.054;2022-10-03T05:27:24;14.57;;;8.55;;
19446;SDS011;9862;49.462;11.054;2022-10-03T05:30:00;17.52;;;8.77;;
19446;SDS011;9862;49.462;11.054;2022-10-03T05:32:34;13.20;;;7.63;;
19446;SDS011;9862;49.462;11.054;2022-10-03T05:35:17;13.10;;;8.15;;
19446;SDS011;9862;49.462;11.054;2022-10-03T05:38:07;11.20;;;6.63;;
19446;SDS011;9862;49.462;11.054;2022-10-03T05:40:59;11.88;;;6.25;;
19446;SDS011;9862;49.462;11.054;2022-10-03T05:43:33;11.77;;;7.10;;
19446;SDS011;9862;49.462;11.054;2022-10-03T05:46:15;12.93;;;7.78;;
19446;SDS011;9862;49.462;11.054;2022-10-03T05:48:47;14.15;;;8.25;;
19446;SDS011;9862;49.462;11.054;2022-10-03T05:51:26;14.82;;;9.73;;
19446;SDS011;9862;49.462;11.054;2022-10-03T06:00:31;9.50;;;6.78;;
19446;SDS011;9862;49.462;11.054;2022-10-03T06:03:24;11.15;;;7.03;;
19446;SDS011;9862;49.462;11.054;2022-10-03T06:06:16;12.57;;;7.32;;
19446;SDS011;9862;49.462;11.054;2022-10-03T06:17:35;14.10;;;6.57;;
19446;SDS011;9862;49.462;11.054;2022-10-03T06:20:17;11.80;;;6.88;;
19446;SDS011;9862;49.462;11.054;2022-10-03T06:23:11;13.35;;;7.18;;
19446;SDS011;9862;49.462;11.054;2022-10-03T06:26:05;18.35;;;7.43;;
19446;SDS011;9862;49.462;11.054;2022-10-03T06:32:27;14.85;;;6.88;;
19446;SDS011;9862;49.462;11.054;2022-10-03T06:35:27;15.82;;;7.20;;
19446;SDS011;9862;49.462;11.054;2022-10-03T06:38:28;12.38;;;7.45;;
19446;SDS011;9862;49.462;11.054;2022-10-03T06:44:50;15.52;;;8.00;;
19446;SDS011;9862;49.462;11.054;2022-10-03T06:47:43;14.88;;;8.45;;
19446;SDS011;9862;49.462;11.054;2022-10-03T06:50:35;13.27;;;8.15;;
19446;SDS011;9862;49.462;11.054;2022-10-03T06:53:32;15.70;;;8.70;;
19446;SDS011;9862;49.462;11.054;2022-10-03T06:56:41;15.15;;;7.95;;
19446;SDS011;9862;49.462;11.054;2022-10-03T06:59:25;14.18;;;7.65;;
19446;SDS011;9862;49.462;11.054;2022-10-03T07:05:36;17.10;;;8.55;;
19446;SDS011;9862;49.462;11.054;2022-10-03T07:08:37;16.98;;;9.65;;
19446;SDS011;9862;49.462;11.054;2022-10-03T07:14:43;24.38;;;10.63;;
19446;SDS011;9862;49.462;11.054;2022-10-03T07:17:36;12.60;;;7.97;;
19446;SDS011;9862;49.462;11.054;2022-10-03T07:20:25;16.77;;;9.15;;
19446;SDS011;9862;49.462;11.054;2022-10-03T07:23:19;19.70;;;8.05;;
19446;SDS011;9862;49.462;11.054;2022-10-03T07:29:22;13.60;;;8.32;;
19446;SDS011;9862;49.462;11.054;2022-10-03T07:35:07;16.80;;;9.07;;
19446;SDS011;9862;49.462;11.054;2022-10-03T07:38:30;14.85;;;8.00;;
19446;SDS011;9862;49.462;11.054;2022-10-03T07:41:30;14.32;;;7.88;;
19446;SDS011;9862;49.462;11.054;2022-10-03T07:44:26;19.02;;;9.07;;
19446;SDS011;9862;49.462;11.054;2022-10-03T07:47:38;17.30;;;8.82;;
19446;SDS011;9862;49.462;11.054;2022-10-03T07:50:31;13.55;;;7.35;;
19446;SDS011;9862;49.462;11.054;2022-10-03T07:53:29;12.38;;;6.55;;
19446;SDS011;9862;49.462;11.054;2022-10-03T07:56:34;15.52;;;7.90;;
19446;SDS011;9862;49.462;11.054;2022-10-03T07:59:33;14.20;;;7.43;;
19446;SDS011;9862;49.462;11.054;2022-10-03T08:02:15;18.85;;;8.43;;
19446;SDS011;9862;49.462;11.054;2022-10-03T08:14:37;10.20;;;5.75;;
19446;SDS011;9862;49.462;11.054;2022-10-03T08:17:22;13.82;;;5.95;;
19446;SDS011;9862;49.462;11.054;2022-10-03T08:23:02;9.63;;;4.97;;
19446;SDS011;9862;49.462;11.054;2022-10-03T08:25:48;11.48;;;5.18;;
19446;SDS011;9862;49.462;11.054;2022-10-03T08:28:31;9.35;;;5.45;;
19446;SDS011;9862;49.462;11.054;2022-10-03T08:31:25;9.38;;;5.68;;
19446;SDS011;9862;49.462;11.054;2022-10-03T08:34:16;10.25;;;5.28;;
19446;SDS011;9862;49.462;11.054;2022-10-03T08:43:25;21.23;;;6.10;;
19446;SDS011;9862;49.462;11.054;2022-10-03T08:46:31;11.75;;;5.35;;
19446;SDS011;9862;49.462;11.054;2022-10-03T08:49:27;13.02;;;5.10;;
19446;SDS011;9862;49.462;11.054;2022-10-03T08:52:12;10.88;;;4.95;;
19446;SDS011;9862;49.462;11.054;2022-10-03T09:01:11;12.70;;;5.05;;
19446;SDS011;9862;49.462;11.054;2022-10-03T09:03:57;9.95;;;4.90;;
19446;SDS011;9862;49.462;11.054;2022-10-03T09:06:47;10.15;;;5.13;;
19446;SDS011;9862;49.462;11.054;2022-10-03T09:09:29;10.20;;;4.95;;
19446;SDS011;9862;49.462;11.054;2022-10-03T09:12:18;12.27;;;5.47;;
19446;SDS011;9862;49.462;11.054;2022-10-03T09:15:28;12.45;;;5.10;;
19446;SDS011;9862;49.462;11.054;2022-10-03T09:18:34;12.13;;;5.00;;
19446;SDS011;9862;49.462;11.054;2022-10-03T09:24:30;9.77;;;4.82;;
19446;SDS011;9862;49.462;11.054;2022-10-03T09:33:12;13.68;;;4.82;;
19446;SDS011;9862;49.462;11.054;2022-10-03T09:36:12;12.65;;;4.80;;
19446;SDS011;9862;49.462;11.054;2022-10-03T09:38:57;6.40;;;4.00;;
19446;SDS011;9862;49.462;11.054;2022-10-03T09:41:37;10.57;;;4.10;;
19446;SDS011;9862;49.462;11.054;2022-10-03T09:44:47;9.18;;;3.95;;
19446;SDS011;9862;49.462;11.054;2022-10-03T09:47:52;13.75;;;4.00;;
19446;SDS011;9862;49.462;11.054;2022-10-03T09:57:04;10.57;;;3.80;;
19446;SDS011;9862;49.462;11.054;2022-10-03T09:59:57;7.53;;;3.40;;
19446;SDS011;9862;49.462;11.054;2022-10-03T10:02:45;8.38;;;2.83;;
19446;SDS011;9862;49.462;11.054;2022-10-03T10:05:30;7.95;;;2.88;;
19446;SDS011;9862;49.462;11.054;2022-10-03T10:08:28;7.57;;;3.45;;
19446;SDS011;9862;49.462;11.054;2022-10-03T10:11:09;6.63;;;2.78;;
19446;SDS011;9862;49.462;11.054;2022-10-03T10:16:53;5.88;;;3.38;;
19446;SDS011;9862;49.462;11.054;2022-10-03T10:20:06;8.52;;;3.28;;
19446;SDS011;9862;49.462;11.054;2022-10-03T10:44:49;13.07;;;3.15;;
19446;SDS011;9862;49.462;11.054;2022-10-03T10:51:07;4.97;;;2.20;;
19446;SDS011;9862;49.462;11.054;2022-10-03T11:00:16;5.22;;;2.38;;
19446;SDS011;9862;49.462;11.054;2022-10-03T11:15:33;6.18;;;2.42;;
19446;SDS011;9862;49.462;11.054;2022-10-03T11:28:32;4.07;;;1.45;;
19446;SDS011;9862;49.462;11.054;2022-10-03T11:37:54;3.58;;;1.00;;
19446;SDS011;9862;49.462;11.054;2022-10-03T11:40:34;4.82;;;1.50;;
19446;SDS011;9862;49.462;11.054;2022-10-03T11:46:35;2.25;;;1.15;;
19446;SDS011;9862;49.462;11.054;2022-10-03T11:49:20;4.63;;;1.63;;
19446;SDS011;9862;49.462;11.054;2022-10-03T11:52:03;4.38;;;1.40;;
19446;SDS011;9862;49.462;11.054;2022-10-03T11:54:44;5.43;;;1.20;;
19446;SDS011;9862;49.462;11.054;2022-10-03T11:57:15;7.75;;;1.90;;
19446;SDS011;9862;49.462;11.054;2022-10-03T11:59:56;3.33;;;1.52;;
19446;SDS011;9862;49.462;11.054;2022-10-03T12:02:36;3.63;;;1.73;;
19446;SDS011;9862;49.462;11.054;2022-10-03T12:05:26;4.07;;;1.20;;
19446;SDS011;9862;49.462;11.054;2022-10-03T12:08:09;3.13;;;1.42;;
19446;SDS011;9862;49.462;11.054;2022-10-03T12:11:05;6.28;;;1.80;;
19446;SDS011;9862;49.462;11.054;2022-10-03T12:13:40;3.95;;;2.08;;
19446;SDS011;9862;49.462;11.054;2022-10-03T12:16:16;4.90;;;1.85;;
19446;SDS011;9862;49.462;11.054;2022-10-03T12:18:53;4.35;;;1.27;;
19446;SDS011;9862;49.462;11.054;2022-10-03T12:21:31;3.50;;;1.63;;
19446;SDS011;9862;49.462;11.054;2022-10-03T12:24:23;5.57;;;1.40;;
19446;SDS011;9862;49.462;11.054;2022-10-03T12:26:52;6.65;;;1.63;;
19446;SDS011;9862;49.462;11.054;2022-10-03T12:29:25;6.70;;;2.50;;
19446;SDS011;9862;49.462;11.054;2022-10-03T12:32:03;4.47;;;1.30;;
19446;SDS011;9862;49.462;11.054;2022-10-03T12:34:41;2.63;;;1.27;;
19446;SDS011;9862;49.462;11.054;2022-10-03T12:40:22;7.03;;;1.00;;
19446;SDS011;9862;49.462;11.054;2022-10-03T12:43:01;1.58;;;1.02;;
19446;SDS011;9862;49.462;11.054;2022-10-03T12:45:35;1.85;;;1.02;;
19446;SDS011;9862;49.462;11.054;2022-10-03T12:51:09;4.03;;;1.00;;
19446;SDS011;9862;49.462;11.054;2022-10-03T12:53:47;3.40;;;0.90;;
19446;SDS011;9862;49.462;11.054;2022-10-03T12:56:25;1.40;;;0.70;;
19446;SDS011;9862;49.462;11.054;2022-10-03T13:04:54;3.42;;;1.13;;
19446;SDS011;9862;49.462;11.054;2022-10-03T13:07:44;4.63;;;1.25;;
19446;SDS011;9862;49.462;11.054;2022-10-03T13:10:21;4.32;;;1.35;;
19446;SDS011;9862;49.462;11.054;2022-10-03T13:12:57;3.20;;;1.20;;
19446;SDS011;9862;49.462;11.054;2022-10-03T13:15:42;3.25;;;0.90;;
19446;SDS011;9862;49.462;11.054;2022-10-03T13:18:19;4.43;;;0.80;;
19446;SDS011;9862;49.462;11.054;2022-10-03T13:21:00;3.05;;;1.20;;
19446;SDS011;9862;49.462;11.054;2022-10-03T13:23:35;1.60;;;0.80;;
19446;SDS011;9862;49.462;11.054;2022-10-03T13:26:12;2.53;;;1.10;;
19446;SDS011;9862;49.462;11.054;2022-10-03T13:31:44;1.95;;;0.80;;
19446;SDS011;9862;49.462;11.054;2022-10-03T13:34:20;4.65;;;1.08;;
19446;SDS011;9862;49.462;11.054;2022-10-03T13:36:52;2.80;;;1.27;;
19446;SDS011;9862;49.462;11.054;2022-10-03T13:39:22;4.20;;;1.13;;
19446;SDS011;9862;49.462;11.054;2022-10-03T13:41:56;3.17;;;1.73;;
19446;SDS011;9862;49.462;11.054;2022-10-03T13:44:33;7.32;;;2.20;;
19446;SDS011;9862;49.462;11.054;2022-10-03T13:47:05;3.60;;;1.13;;
19446;SDS011;9862;49.462;11.054;2022-10-03T13:49:47;3.95;;;1.10;;
19446;SDS011;9862;49.462;11.054;2022-10-03T13:52:20;2.58;;;1.10;;
19446;SDS011;9862;49.462;11.054;2022-10-03T13:55:04;4.65;;;1.67;;
19446;SDS011;9862;49.462;11.054;2022-10-03T13:57:43;2.90;;;1.08;;
19446;SDS011;9862;49.462;11.054;2022-10-03T14:00:13;3.28;;;1.30;;
19446;SDS011;9862;49.462;11.054;2022-10-03T14:02:47;7.28;;;1.98;;
19446;SDS011;9862;49.462;11.054;2022-10-03T14:08:45;3.08;;;1.00;;
19446;SDS011;9862;49.462;11.054;2022-10-03T14:11:32;8.73;;;3.10;;
19446;SDS011;9862;49.462;11.054;2022-10-03T14:14:20;2.60;;;0.98;;
19446;SDS011;9862;49.462;11.054;2022-10-03T14:17:01;4.25;;;1.35;;
19446;SDS011;9862;49.462;11.054;2022-10-03T14:19:36;2.88;;;1.10;;
19446;SDS011;9862;49.462;11.054;2022-10-03T14:22:11;5.22;;;1.13;;
19446;SDS011;9862;49.462;11.054;2022-10-03T14:24:56;4.18;;;1.50;;
19446;SDS011;9862;49.462;11.054;2022-10-03T14:27:42;3.53;;;1.58;;
19446;SDS011;9862;49.462;11.054;2022-10-03T14:30:15;3.38;;;1.00;;
19446;SDS011;9862;49.462;11.054;2022-10-03T14:32:49;2.30;;;1.42;;
19446;SDS011;9862;49.462;11.054;2022-10-03T14:35:28;2.38;;;1.10;;
19446;SDS011;9862;49.462;11.054;2022-10-03T14:38:06;4.53;;;1.55;;
19446;SDS011;9862;49.462;11.054;2022-10-03T14:40:47;1.45;;;1.00;;
19446;SDS011;9862;49.462;11.054;2022-10-03T14:43:21;5.38;;;1.70;;
19446;SDS011;9862;49.462;11.054;2022-10-03T14:45:56;2.90;;;1.40;;
19446;SDS011;9862;49.462;11.054;2022-10-03T14:48:27;4.43;;;1.48;;
19446;SDS011;9862;49.462;11.054;2022-10-03T14:50:58;3.63;;;1.60;;
19446;SDS011;9862;49.462;11.054;2022-10-03T14:53:33;3.05;;;1.25;;
19446;SDS011;9862;49.462;11.054;2022-10-03T14:56:06;5.28;;;1.40;;
19446;SDS011;9862;49.462;11.054;2022-10-03T14:58:36;4.20;;;1.58;;
19446;SDS011;9862;49.462;11.054;2022-10-03T15:01:11;1.88;;;1.20;;
19446;SDS011;9862;49.462;11.054;2022-10-03T15:03:44;4.75;;;2.35;;
19446;SDS011;9862;49.462;11.054;2022-10-03T15:06:29;3.53;;;1.65;;
19446;SDS011;9862;49.462;11.054;2022-10-03T15:09:15;6.32;;;1.90;;
19446;SDS011;9862;49.462;11.054;2022-10-03T15:11:49;4.80;;;1.58;;
19446;SDS011;9862;49.462;11.054;2022-10-03T15:14:23;2.78;;;1.30;;
19446;SDS011;9862;49.462;11.054;2022-10-03T15:16:53;3.97;;;1.30;;
19446;SDS011;9862;49.462;11.054;2022-10-03T15:19:22;13.65;;;2.40;;
19446;SDS011;9862;49.462;11.054;2022-10-03T15:22:02;5.30;;;1.75;;
19446;SDS011;9862;49.462;11.054;2022-10-03T15:24:38;3.85;;;1.55;;
19446;SDS011;9862;49.462;11.054;2022-10-03T15:27:10;3.33;;;1.30;;
19446;SDS011;9862;49.462;11.054;2022-10-03T15:29:44;3.35;;;1.65;;
19446;SDS011;9862;49.462;11.054;2022-10-03T15:32:17;4.38;;;1.02;;
19446;SDS011;9862;49.462;11.054;2022-10-03T15:34:48;2.35;;;1.17;;
19446;SDS011;9862;49.462;11.054;2022-10-03T15:37:19;4.30;;;1.33;;
19446;SDS011;9862;49.462;11.054;2022-10-03T15:39:49;2.88;;;1.58;;
19446;SDS011;9862;49.462;11.054;2022-10-03T15:42:22;4.93;;;1.70;;
19446;SDS011;9862;49.462;11.054;2022-10-03T15:44:54;2.45;;;1.58;;
19446;SDS011;9862;49.462;11.054;2022-10-03T15:47:26;2.85;;;1.60;;
19446;SDS011;9862;49.462;11.054;2022-10-03T15:49:56;4.20;;;1.45;;
19446;SDS011;9862;49.462;11.054;2022-10-03T15:52:30;4.45;;;1.45;;
19446;SDS011;9862;49.462;11.054;2022-10-03T15:55:01;4.38;;;2.22;;
19446;SDS011;9862;49.462;11.054;2022-10-03T15:57:32;2.88;;;1.60;;
19446;SDS011;9862;49.462;11.054;2022-10-03T16:00:03;2.47;;;1.48;;
19446;SDS011;9862;49.462;11.054;2022-10-03T16:02:32;5.20;;;1.70;;
19446;SDS011;9862;49.462;11.054;2022-10-03T16:05:02;5.18;;;1.83;;
19446;SDS011;9862;49.462;11.054;2022-10-03T16:07:35;3.80;;;2.13;;
19446;SDS011;9862;49.462;11.054;2022-10-03T16:10:14;3.58;;;2.10;;
19446;SDS011;9862;49.462;11.054;2022-10-03T16:12:54;6.50;;;1.80;;
19446;SDS011;9862;49.462;11.054;2022-10-03T16:15:26;3.85;;;2.20;;
19446;SDS011;9862;49.462;11.054;2022-10-03T16:18:03;7.20;;;2.80;;
19446;SDS011;9862;49.462;11.054;2022-10-03T16:20:36;4.70;;;2.33;;
19446;SDS011;9862;49.462;11.054;2022-10-03T16:23:08;4.82;;;2.58;;
19446;SDS011;9862;49.462;11.054;2022-10-03T16:25:43;6.05;;;2.50;;
19446;SDS011;9862;49.462;11.054;2022-10-03T16:28:15;7.43;;;2.72;;
19446;SDS011;9862;49.462;11.054;2022-10-03T16:30:45;5.28;;;2.83;;
19446;SDS011;9862;49.462;11.054;2022-10-03T16:33:22;8.57;;;2.67;;
19446;SDS011;9862;49.462;11.054;2022-10-03T16:35:52;4.47;;;2.80;;
19446;SDS011;9862;49.462;11.054;2022-10-03T16:38:23;6.50;;;2.95;;
19446;SDS011;9862;49.462;11.054;2022-10-03T16:40:52;5.40;;;2.70;;
19446;SDS011;9862;49.462;11.054;2022-10-03T16:43:23;3.50;;;2.65;;
19446;SDS011;9862;49.462;11.054;2022-10-03T16:45:50;6.10;;;3.35;;
19446;SDS011;9862;49.462;11.054;2022-10-03T16:48:19;5.93;;;2.60;;
19446;SDS011;9862;49.462;11.054;2022-10-03T16:51:06;5.18;;;2.78;;
19446;SDS011;9862;49.462;11.054;2022-10-03T16:53:42;3.15;;;2.30;;
19446;SDS011;9862;49.462;11.054;2022-10-03T16:56:11;4.47;;;1.88;;
19446;SDS011;9862;49.462;11.054;2022-10-03T16:58:45;3.30;;;2.05;;
19446;SDS011;9862;49.462;11.054;2022-10-03T17:01:21;3.65;;;1.95;;
19446;SDS011;9862;49.462;11.054;2022-10-03T17:03:57;4.10;;;2.55;;
19446;SDS011;9862;49.462;11.054;2022-10-03T17:06:34;6.55;;;2.60;;
19446;SDS011;9862;49.462;11.054;2022-10-03T17:09:04;6.35;;;3.45;;
19446;SDS011;9862;49.462;11.054;2022-10-03T17:11:40;9.38;;;3.78;;
19446;SDS011;9862;49.462;11.054;2022-10-03T17:14:14;7.18;;;4.88;;
19446;SDS011;9862;49.462;11.054;2022-10-03T17:16:44;7.50;;;5.30;;
19446;SDS011;9862;49.462;11.054;2022-10-03T17:19:20;7.35;;;4.25;;
19446;SDS011;9862;49.462;11.054;2022-10-03T17:21:57;4.68;;;2.75;;
19446;SDS011;9862;49.462;11.054;2022-10-03T17:24:33;4.03;;;2.47;;
19446;SDS011;9862;49.462;11.054;2022-10-03T17:27:07;5.05;;;2.75;;
19446;SDS011;9862;49.462;11.054;2022-10-03T17:29:43;4.43;;;2.38;;
19446;SDS011;9862;49.462;11.054;2022-10-03T17:32:17;4.75;;;2.45;;
19446;SDS011;9862;49.462;11.054;2022-10-03T17:34:50;5.20;;;2.90;;
19446;SDS011;9862;49.462;11.054;2022-10-03T17:37:28;5.45;;;2.83;;
19446;SDS011;9862;49.462;11.054;2022-10-03T17:40:18;5.55;;;3.33;;
19446;SDS011;9862;49.462;11.054;2022-10-03T17:42:49;6.15;;;3.42;;
19446;SDS011;9862;49.462;11.054;2022-10-03T17:45:26;7.05;;;4.18;;
19446;SDS011;9862;49.462;11.054;2022-10-03T17:47:59;13.38;;;6.22;;
19446;SDS011;9862;49.462;11.054;2022-10-03T17:50:36;12.57;;;6.35;;
19446;SDS011;9862;49.462;11.054;2022-10-03T17:53:17;15.45;;;6.40;;
19446;SDS011;9862;49.462;11.054;2022-10-03T17:55:45;11.00;;;6.32;;
19446;SDS011;9862;49.462;11.054;2022-10-03T17:58:16;10.25;;;5.68;;
19446;SDS011;9862;49.462;11.054;2022-10-03T18:00:55;39.35;;;20.50;;
19446;SDS011;9862;49.462;11.054;2022-10-03T18:03:31;17.35;;;7.63;;
19446;SDS011;9862;49.462;11.054;2022-10-03T18:09:00;21.90;;;11.43;;
19446;SDS011;9862;49.462;11.054;2022-10-03T18:11:36;17.00;;;8.48;;
19446;SDS011;9862;49.462;11.054;2022-10-03T18:14:07;17.73;;;8.68;;
19446;SDS011;9862;49.462;11.054;2022-10-03T18:16:43;11.75;;;6.40;;
19446;SDS011;9862;49.462;11.054;2022-10-03T18:19:21;9.90;;;5.68;;
19446;SDS011;9862;49.462;11.054;2022-10-03T18:21:59;11.13;;;4.55;;
19446;SDS011;9862;49.462;11.054;2022-10-03T18:24:39;8.98;;;6.03;;
19446;SDS011;9862;49.462;11.054;2022-10-03T18:27:29;9.77;;;5.10;;
19446;SDS011;9862;49.462;11.054;2022-10-03T18:30:26;7.10;;;4.95;;
19446;SDS011;9862;49.462;11.054;2022-10-03T18:33:01;10.60;;;5.32;;
19446;SDS011;9862;49.462;11.054;2022-10-03T18:35:33;9.07;;;5.93;;
19446;SDS011;9862;49.462;11.054;2022-10-03T18:38:03;12.48;;;7.32;;
19446;SDS011;9862;49.462;11.054;2022-10-03T18:40:33;13.52;;;8.05;;
19446;SDS011;9862;49.462;11.054;2022-10-03T18:43:05;13.88;;;8.13;;
19446;SDS011;9862;49.462;11.054;2022-10-03T18:45:44;15.93;;;8.68;;
19446;SDS011;9862;49.462;11.054;2022-10-03T18:48:16;13.25;;;7.53;;
19446;SDS011;9862;49.462;11.054;2022-10-03T18:50:54;21.33;;;10.90;;
19446;SDS011;9862;49.462;11.054;2022-10-03T18:53:29;37.60;;;20.48;;
19446;SDS011;9862;49.462;11.054;2022-10-03T18:56:00;37.30;;;20.27;;
19446;SDS011;9862;49.462;11.054;2022-10-03T18:58:35;27.70;;;14.57;;
19446;SDS011;9862;49.462;11.054;2022-10-03T19:01:05;11.35;;;6.78;;
19446;SDS011;9862;49.462;11.054;2022-10-03T19:03:42;12.68;;;7.70;;
19446;SDS011;9862;49.462;11.054;2022-10-03T19:06:15;16.33;;;8.77;;
19446;SDS011;9862;49.462;11.054;2022-10-03T19:08:52;13.55;;;8.48;;
19446;SDS011;9862;49.462;11.054;2022-10-03T19:11:22;14.95;;;7.95;;
19446;SDS011;9862;49.462;11.054;2022-10-03T19:13:58;11.32;;;6.43;;
19446;SDS011;9862;49.462;11.054;2022-10-03T19:16:40;11.60;;;5.97;;
19446;SDS011;9862;49.462;11.054;2022-10-03T19:19:16;10.35;;;5.68;;
19446;SDS011;9862;49.462;11.054;2022-10-03T19:21:51;21.92;;;11.57;;
19446;SDS011;9862;49.462;11.054;2022-10-03T19:24:19;55.38;;;27.73;;
19446;SDS011;9862;49.462;11.054;2022-10-03T19:26:53;25.65;;;13.05;;
19446;SDS011;9862;49.462;11.054;2022-10-03T19:29:26;7.68;;;5.18;;
19446;SDS011;9862;49.462;11.054;2022-10-03T19:32:00;11.10;;;6.13;;